Terminal Aerodrome Forecast
Issued by NWS Chicago, IL

Home | Current Version | Previous Version | Text Only | Print | Product List | Glossary On
Versions: 1 2 3 4 5 6 7 8 9 10 11 12 13 14 15 16 17 18 19 20 21 22 23 24 25 26
238
FTUS43 KLOT 042101 AAA
TAFRFD
TAF AMD
KRFD 042101Z 0421/0518 35015G23KT P6SM VCSH BKN045
     FM050100 01010KT P6SM FEW040=

USA.gov is the U.S. government's official web portal to all federal, state and local government web resources and services.